sensor_id;sensor_type;location;lat;lon;timestamp;temperature;humidity
6662;DHT22;3367;48.714;8.994;2023-09-07T00:00:58;14.30;99.90
6662;DHT22;3367;48.714;8.994;2023-09-07T00:03:26;14.20;99.90
6662;DHT22;3367;48.714;8.994;2023-09-07T00:05:53;14.20;99.90
6662;DHT22;3367;48.714;8.994;2023-09-07T00:08:23;14.20;1.00
6662;DHT22;3367;48.714;8.994;2023-09-07T00:10:53;14.10;1.00
6662;DHT22;3367;48.714;8.994;2023-09-07T00:13:23;14.10;1.00
6662;DHT22;3367;48.714;8.994;2023-09-07T00:15:58;14.10;99.90
6662;DHT22;3367;48.714;8.994;2023-09-07T00:18:28;14.00;99.90
6662;DHT22;3367;48.714;8.994;2023-09-07T00:20:58;14.00;99.90
6662;DHT22;3367;48.714;8.994;2023-09-07T00:23:26;14.00;99.90
6662;DHT22;3367;48.714;8.994;2023-09-07T00:25:59;13.90;1.00
6662;DHT22;3367;48.714;8.994;2023-09-07T00:28:28;13.90;1.00
6662;DHT22;3367;48.714;8.994;2023-09-07T00:30:55;13.90;1.00
6662;DHT22;3367;48.714;8.994;2023-09-07T00:33:25;13.80;1.00
6662;DHT22;3367;48.714;8.994;2023-09-07T00:35:57;13.80;1.00
6662;DHT22;3367;48.714;8.994;2023-09-07T00:38:33;13.80;1.00
6662;DHT22;3367;48.714;8.994;2023-09-07T00:41:03;13.80;1.00
6662;DHT22;3367;48.714;8.994;2023-09-07T00:43:39;13.70;1.00
6662;DHT22;3367;48.714;8.994;2023-09-07T00:46:09;13.80;1.00
6662;DHT22;3367;48.714;8.994;2023-09-07T00:48:36;13.70;1.00
6662;DHT22;3367;48.714;8.994;2023-09-07T00:51:03;13.70;1.00
6662;DHT22;3367;48.714;8.994;2023-09-07T00:53:37;13.70;1.00
6662;DHT22;3367;48.714;8.994;2023-09-07T00:56:07;13.70;1.00
6662;DHT22;3367;48.714;8.994;2023-09-07T00:58:37;13.60;1.00
6662;DHT22;3367;48.714;8.994;2023-09-07T01:01:07;13.60;1.00
6662;DHT22;3367;48.714;8.994;2023-09-07T01:03:34;13.60;1.00
6662;DHT22;3367;48.714;8.994;2023-09-07T01:06:04;13.60;1.00
6662;DHT22;3367;48.714;8.994;2023-09-07T01:08:46;13.60;1.00
6662;DHT22;3367;48.714;8.994;2023-09-07T01:11:13;13.50;1.00
6662;DHT22;3367;48.714;8.994;2023-09-07T01:13:43;13.50;1.00
6662;DHT22;3367;48.714;8.994;2023-09-07T01:16:12;13.40;1.00
6662;DHT22;3367;48.714;8.994;2023-09-07T01:18:45;13.40;1.00
6662;DHT22;3367;48.714;8.994;2023-09-07T01:21:13;13.50;1.00
6662;DHT22;3367;48.714;8.994;2023-09-07T01:23:47;13.40;1.00
6662;DHT22;3367;48.714;8.994;2023-09-07T01:26:18;13.40;1.00
6662;DHT22;3367;48.714;8.994;2023-09-07T01:28:45;13.30;1.00
6662;DHT22;3367;48.714;8.994;2023-09-07T01:31:11;13.40;1.00
6662;DHT22;3367;48.714;8.994;2023-09-07T01:33:38;13.30;1.00
6662;DHT22;3367;48.714;8.994;2023-09-07T01:36:06;13.30;1.00
6662;DHT22;3367;48.714;8.994;2023-09-07T01:38:35;13.30;1.00
6662;DHT22;3367;48.714;8.994;2023-09-07T01:41:03;13.30;1.00
6662;DHT22;3367;48.714;8.994;2023-09-07T01:43:35;13.30;1.00
6662;DHT22;3367;48.714;8.994;2023-09-07T01:46:05;13.30;1.00
6662;DHT22;3367;48.714;8.994;2023-09-07T01:48:34;13.20;1.00
6662;DHT22;3367;48.714;8.994;2023-09-07T01:51:09;13.20;1.00
6662;DHT22;3367;48.714;8.994;2023-09-07T01:53:47;13.20;1.00
6662;DHT22;3367;48.714;8.994;2023-09-07T01:56:18;13.20;1.00
6662;DHT22;3367;48.714;8.994;2023-09-07T01:58:45;13.10;1.00
6662;DHT22;3367;48.714;8.994;2023-09-07T02:01:25;13.10;1.00
6662;DHT22;3367;48.714;8.994;2023-09-07T02:03:57;13.20;1.00
6662;DHT22;3367;48.714;8.994;2023-09-07T02:06:24;13.00;1.00
6662;DHT22;3367;48.714;8.994;2023-09-07T02:08:54;13.00;1.00
6662;DHT22;3367;48.714;8.994;2023-09-07T02:11:25;13.00;1.00
6662;DHT22;3367;48.714;8.994;2023-09-07T02:17:32;12.90;1.00
6662;DHT22;3367;48.714;8.994;2023-09-07T02:19:59;12.90;1.00
6662;DHT22;3367;48.714;8.994;2023-09-07T02:22:25;12.80;1.00
6662;DHT22;3367;48.714;8.994;2023-09-07T02:24:55;12.80;18.20
6662;DHT22;3367;48.714;8.994;2023-09-07T02:27:23;12.80;17.40
6662;DHT22;3367;48.714;8.994;2023-09-07T02:29:50;12.80;62.90
6662;DHT22;3367;48.714;8.994;2023-09-07T02:32:17;12.80;45.30
6662;DHT22;3367;48.714;8.994;2023-09-07T02:34:47;12.70;99.60
6662;DHT22;3367;48.714;8.994;2023-09-07T02:37:42;12.80;99.90
6662;DHT22;3367;48.714;8.994;2023-09-07T02:40:12;12.70;99.90
6662;DHT22;3367;48.714;8.994;2023-09-07T02:42:41;12.70;99.90
6662;DHT22;3367;48.714;8.994;2023-09-07T02:45:11;12.70;99.90
6662;DHT22;3367;48.714;8.994;2023-09-07T02:47:38;12.70;99.90
6662;DHT22;3367;48.714;8.994;2023-09-07T02:50:05;12.70;85.00
6662;DHT22;3367;48.714;8.994;2023-09-07T02:52:32;12.60;99.90
6662;DHT22;3367;48.714;8.994;2023-09-07T02:54:59;12.60;99.90
6662;DHT22;3367;48.714;8.994;2023-09-07T02:57:25;12.50;99.90
6662;DHT22;3367;48.714;8.994;2023-09-07T02:59:54;12.60;99.90
6662;DHT22;3367;48.714;8.994;2023-09-07T03:02:20;12.50;99.90
6662;DHT22;3367;48.714;8.994;2023-09-07T03:04:53;12.40;99.90
6662;DHT22;3367;48.714;8.994;2023-09-07T03:07:24;12.50;99.90
6662;DHT22;3367;48.714;8.994;2023-09-07T03:09:53;12.50;99.90
6662;DHT22;3367;48.714;8.994;2023-09-07T03:12:21;12.50;99.90
6662;DHT22;3367;48.714;8.994;2023-09-07T03:14:51;12.40;99.90
6662;DHT22;3367;48.714;8.994;2023-09-07T03:17:22;12.40;99.90
6662;DHT22;3367;48.714;8.994;2023-09-07T03:19:52;12.40;99.90
6662;DHT22;3367;48.714;8.994;2023-09-07T03:22:25;12.40;85.10
6662;DHT22;3367;48.714;8.994;2023-09-07T03:24:53;12.40;95.90
6662;DHT22;3367;48.714;8.994;2023-09-07T03:27:26;12.40;51.30
6662;DHT22;3367;48.714;8.994;2023-09-07T03:29:53;12.40;66.90
6662;DHT22;3367;48.714;8.994;2023-09-07T03:32:20;12.30;99.90
6662;DHT22;3367;48.714;8.994;2023-09-07T03:34:48;12.40;99.90
6662;DHT22;3367;48.714;8.994;2023-09-07T03:37:17;12.30;99.90
6662;DHT22;3367;48.714;8.994;2023-09-07T03:39:46;12.30;99.90
6662;DHT22;3367;48.714;8.994;2023-09-07T03:42:13;12.30;71.30
6662;DHT22;3367;48.714;8.994;2023-09-07T03:44:46;12.30;88.50
6662;DHT22;3367;48.714;8.994;2023-09-07T03:47:14;12.30;99.90
6662;DHT22;3367;48.714;8.994;2023-09-07T03:49:41;12.30;99.90
6662;DHT22;3367;48.714;8.994;2023-09-07T03:52:09;12.40;99.90
6662;DHT22;3367;48.714;8.994;2023-09-07T03:54:37;12.30;99.90
6662;DHT22;3367;48.714;8.994;2023-09-07T03:57:04;12.30;99.90
6662;DHT22;3367;48.714;8.994;2023-09-07T03:59:30;12.30;99.90
6662;DHT22;3367;48.714;8.994;2023-09-07T04:02:01;12.20;99.90
6662;DHT22;3367;48.714;8.994;2023-09-07T04:04:28;12.20;99.90
6662;DHT22;3367;48.714;8.994;2023-09-07T04:06:55;12.20;99.90
6662;DHT22;3367;48.714;8.994;2023-09-07T04:09:23;12.00;99.90
6662;DHT22;3367;48.714;8.994;2023-09-07T04:11:49;12.10;99.90
6662;DHT22;3367;48.714;8.994;2023-09-07T04:14:16;12.00;99.90
6662;DHT22;3367;48.714;8.994;2023-09-07T04:16:43;12.00;1.00
6662;DHT22;3367;48.714;8.994;2023-09-07T04:19:09;11.90;1.00
6662;DHT22;3367;48.714;8.994;2023-09-07T04:21:36;11.90;1.00
6662;DHT22;3367;48.714;8.994;2023-09-07T04:24:04;11.90;99.90
6662;DHT22;3367;48.714;8.994;2023-09-07T04:26:33;11.90;99.90
6662;DHT22;3367;48.714;8.994;2023-09-07T04:29:00;11.90;99.90
6662;DHT22;3367;48.714;8.994;2023-09-07T04:31:26;11.80;99.90
6662;DHT22;3367;48.714;8.994;2023-09-07T04:33:53;11.80;99.90
6662;DHT22;3367;48.714;8.994;2023-09-07T04:36:20;11.90;1.00
6662;DHT22;3367;48.714;8.994;2023-09-07T04:38:46;11.90;1.00
6662;DHT22;3367;48.714;8.994;2023-09-07T04:41:13;11.80;1.00
6662;DHT22;3367;48.714;8.994;2023-09-07T04:43:42;11.80;1.00
6662;DHT22;3367;48.714;8.994;2023-09-07T04:46:10;11.80;1.00
6662;DHT22;3367;48.714;8.994;2023-09-07T04:48:37;11.80;1.00
6662;DHT22;3367;48.714;8.994;2023-09-07T04:51:05;11.70;1.00
6662;DHT22;3367;48.714;8.994;2023-09-07T04:53:33;11.80;1.00
6662;DHT22;3367;48.714;8.994;2023-09-07T04:56:01;11.80;1.00
6662;DHT22;3367;48.714;8.994;2023-09-07T04:58:28;11.80;1.00
6662;DHT22;3367;48.714;8.994;2023-09-07T05:01:01;11.80;1.00
6662;DHT22;3367;48.714;8.994;2023-09-07T05:03:28;11.80;1.00
6662;DHT22;3367;48.714;8.994;2023-09-07T05:05:55;11.90;1.00
6662;DHT22;3367;48.714;8.994;2023-09-07T05:08:22;11.90;1.00
6662;DHT22;3367;48.714;8.994;2023-09-07T05:10:54;11.90;1.00
6662;DHT22;3367;48.714;8.994;2023-09-07T05:13:22;11.80;1.00
6662;DHT22;3367;48.714;8.994;2023-09-07T05:15:49;11.90;1.00
6662;DHT22;3367;48.714;8.994;2023-09-07T05:18:18;11.90;1.00
6662;DHT22;3367;48.714;8.994;2023-09-07T05:20:46;11.90;1.00
6662;DHT22;3367;48.714;8.994;2023-09-07T05:23:14;12.00;1.00
6662;DHT22;3367;48.714;8.994;2023-09-07T05:25:44;12.00;1.00
6662;DHT22;3367;48.714;8.994;2023-09-07T05:28:13;12.10;99.90
6662;DHT22;3367;48.714;8.994;2023-09-07T05:30:40;12.10;99.90
6662;DHT22;3367;48.714;8.994;2023-09-07T05:33:07;12.10;99.90
6662;DHT22;3367;48.714;8.994;2023-09-07T05:35:35;12.30;99.90
6662;DHT22;3367;48.714;8.994;2023-09-07T05:38:02;12.40;1.00
6662;DHT22;3367;48.714;8.994;2023-09-07T05:40:29;12.70;1.00
6662;DHT22;3367;48.714;8.994;2023-09-07T05:42:56;13.00;1.00
6662;DHT22;3367;48.714;8.994;2023-09-07T05:45:23;13.40;1.00
6662;DHT22;3367;48.714;8.994;2023-09-07T05:47:49;13.80;1.00
6662;DHT22;3367;48.714;8.994;2023-09-07T05:50:16;14.30;50.60
6662;DHT22;3367;48.714;8.994;2023-09-07T05:52:44;14.80;1.00
6662;DHT22;3367;48.714;8.994;2023-09-07T05:55:11;15.20;99.90
6662;DHT22;3367;48.714;8.994;2023-09-07T05:57:38;15.50;1.00
6662;DHT22;3367;48.714;8.994;2023-09-07T06:00:06;16.00;1.00
6662;DHT22;3367;48.714;8.994;2023-09-07T06:02:33;16.30;1.00
6662;DHT22;3367;48.714;8.994;2023-09-07T06:04:59;16.60;99.90
6662;DHT22;3367;48.714;8.994;2023-09-07T06:07:26;16.70;99.90
6662;DHT22;3367;48.714;8.994;2023-09-07T06:09:54;16.90;92.00
6662;DHT22;3367;48.714;8.994;2023-09-07T06:12:24;17.10;31.50
6662;DHT22;3367;48.714;8.994;2023-09-07T06:14:50;17.40;1.00
6662;DHT22;3367;48.714;8.994;2023-09-07T06:17:17;17.70;1.00
6662;DHT22;3367;48.714;8.994;2023-09-07T06:19:44;18.00;1.00
6662;DHT22;3367;48.714;8.994;2023-09-07T06:22:11;18.30;1.00
6662;DHT22;3367;48.714;8.994;2023-09-07T06:24:37;18.70;1.00
6662;DHT22;3367;48.714;8.994;2023-09-07T06:27:05;19.10;1.00
6662;DHT22;3367;48.714;8.994;2023-09-07T06:29:32;19.40;1.00
6662;DHT22;3367;48.714;8.994;2023-09-07T06:31:59;19.60;1.00
6662;DHT22;3367;48.714;8.994;2023-09-07T06:34:26;19.80;1.00
6662;DHT22;3367;48.714;8.994;2023-09-07T06:36:52;20.20;1.00
6662;DHT22;3367;48.714;8.994;2023-09-07T06:39:19;20.40;1.00
6662;DHT22;3367;48.714;8.994;2023-09-07T06:41:47;20.60;1.00
6662;DHT22;3367;48.714;8.994;2023-09-07T06:44:15;20.70;1.00
6662;DHT22;3367;48.714;8.994;2023-09-07T06:46:41;20.50;1.00
6662;DHT22;3367;48.714;8.994;2023-09-07T06:49:08;20.50;1.00
6662;DHT22;3367;48.714;8.994;2023-09-07T06:51:35;20.50;1.00
6662;DHT22;3367;48.714;8.994;2023-09-07T06:54:01;20.40;1.00
6662;DHT22;3367;48.714;8.994;2023-09-07T06:56:29;20.20;1.00
6662;DHT22;3367;48.714;8.994;2023-09-07T06:58:56;20.30;1.00
6662;DHT22;3367;48.714;8.994;2023-09-07T07:01:24;20.50;1.00
6662;DHT22;3367;48.714;8.994;2023-09-07T07:03:51;20.90;1.00
6662;DHT22;3367;48.714;8.994;2023-09-07T07:06:18;21.40;1.00
6662;DHT22;3367;48.714;8.994;2023-09-07T07:08:45;22.10;1.00
6662;DHT22;3367;48.714;8.994;2023-09-07T07:11:11;22.70;1.00
6662;DHT22;3367;48.714;8.994;2023-09-07T07:13:38;23.00;1.00
6662;DHT22;3367;48.714;8.994;2023-09-07T07:16:05;23.10;1.00
6662;DHT22;3367;48.714;8.994;2023-09-07T07:18:33;23.40;1.00
6662;DHT22;3367;48.714;8.994;2023-09-07T07:20:59;23.80;1.00
6662;DHT22;3367;48.714;8.994;2023-09-07T07:23:26;23.90;1.00
6662;DHT22;3367;48.714;8.994;2023-09-07T07:25:53;23.70;1.00
6662;DHT22;3367;48.714;8.994;2023-09-07T07:28:20;23.60;1.00
6662;DHT22;3367;48.714;8.994;2023-09-07T07:30:46;23.50;1.00
6662;DHT22;3367;48.714;8.994;2023-09-07T07:33:13;23.40;1.00
6662;DHT22;3367;48.714;8.994;2023-09-07T07:35:41;23.50;1.00
6662;DHT22;3367;48.714;8.994;2023-09-07T07:38:08;23.50;1.00
6662;DHT22;3367;48.714;8.994;2023-09-07T07:40:35;24.00;1.00
6662;DHT22;3367;48.714;8.994;2023-09-07T07:43:02;23.90;1.00
6662;DHT22;3367;48.714;8.994;2023-09-07T07:45:29;22.90;1.00
6662;DHT22;3367;48.714;8.994;2023-09-07T07:47:57;22.20;1.00
6662;DHT22;3367;48.714;8.994;2023-09-07T07:50:24;22.00;1.00
6662;DHT22;3367;48.714;8.994;2023-09-07T07:52:52;21.60;1.00
6662;DHT22;3367;48.714;8.994;2023-09-07T07:55:18;21.30;1.00
6662;DHT22;3367;48.714;8.994;2023-09-07T07:57:45;21.00;1.00
6662;DHT22;3367;48.714;8.994;2023-09-07T08:00:14;20.70;1.00
6662;DHT22;3367;48.714;8.994;2023-09-07T08:02:40;20.90;1.00
6662;DHT22;3367;48.714;8.994;2023-09-07T08:05:08;20.90;1.00
6662;DHT22;3367;48.714;8.994;2023-09-07T08:07:35;21.00;1.00
6662;DHT22;3367;48.714;8.994;2023-09-07T08:10:04;21.00;1.00
6662;DHT22;3367;48.714;8.994;2023-09-07T08:12:31;21.00;1.00
6662;DHT22;3367;48.714;8.994;2023-09-07T08:14:58;21.00;1.00
6662;DHT22;3367;48.714;8.994;2023-09-07T08:17:25;20.90;1.00
6662;DHT22;3367;48.714;8.994;2023-09-07T08:19:51;21.00;1.00
6662;DHT22;3367;48.714;8.994;2023-09-07T08:22:21;21.00;1.00
6662;DHT22;3367;48.714;8.994;2023-09-07T08:24:48;20.90;1.00
6662;DHT22;3367;48.714;8.994;2023-09-07T08:27:17;20.80;1.00
6662;DHT22;3367;48.714;8.994;2023-09-07T08:29:44;21.00;1.00
6662;DHT22;3367;48.714;8.994;2023-09-07T08:32:16;21.00;1.00
6662;DHT22;3367;48.714;8.994;2023-09-07T08:34:43;21.10;1.00
6662;DHT22;3367;48.714;8.994;2023-09-07T08:37:10;21.00;1.00
6662;DHT22;3367;48.714;8.994;2023-09-07T08:39:37;21.10;1.00
6662;DHT22;3367;48.714;8.994;2023-09-07T08:42:05;21.10;1.00
6662;DHT22;3367;48.714;8.994;2023-09-07T08:44:37;21.20;1.00
6662;DHT22;3367;48.714;8.994;2023-09-07T08:47:04;21.40;1.00
6662;DHT22;3367;48.714;8.994;2023-09-07T08:49:32;21.40;1.00
6662;DHT22;3367;48.714;8.994;2023-09-07T08:52:01;21.60;1.00
6662;DHT22;3367;48.714;8.994;2023-09-07T08:54:28;21.70;1.00
6662;DHT22;3367;48.714;8.994;2023-09-07T08:56:57;21.80;1.00
6662;DHT22;3367;48.714;8.994;2023-09-07T08:59:24;21.70;1.00
6662;DHT22;3367;48.714;8.994;2023-09-07T09:01:56;21.70;1.00
6662;DHT22;3367;48.714;8.994;2023-09-07T09:04:23;21.80;1.00
6662;DHT22;3367;48.714;8.994;2023-09-07T09:06:50;21.90;1.00
6662;DHT22;3367;48.714;8.994;2023-09-07T09:09:22;22.10;1.00
6662;DHT22;3367;48.714;8.994;2023-09-07T09:11:50;22.30;1.00
6662;DHT22;3367;48.714;8.994;2023-09-07T09:14:17;22.30;1.00
6662;DHT22;3367;48.714;8.994;2023-09-07T09:16:48;22.30;1.00
6662;DHT22;3367;48.714;8.994;2023-09-07T09:19:17;22.40;1.00
6662;DHT22;3367;48.714;8.994;2023-09-07T09:21:45;22.40;1.00
6662;DHT22;3367;48.714;8.994;2023-09-07T09:24:12;22.30;1.00
6662;DHT22;3367;48.714;8.994;2023-09-07T09:26:40;22.30;1.00
6662;DHT22;3367;48.714;8.994;2023-09-07T09:29:09;22.50;1.00
6662;DHT22;3367;48.714;8.994;2023-09-07T09:31:36;22.40;1.00
6662;DHT22;3367;48.714;8.994;2023-09-07T09:34:03;22.40;1.00
6662;DHT22;3367;48.714;8.994;2023-09-07T09:36:36;22.40;1.00
6662;DHT22;3367;48.714;8.994;2023-09-07T09:39:03;22.40;1.00
6662;DHT22;3367;48.714;8.994;2023-09-07T09:41:32;22.50;1.00
6662;DHT22;3367;48.714;8.994;2023-09-07T09:44:00;22.50;1.00
6662;DHT22;3367;48.714;8.994;2023-09-07T09:46:31;22.60;1.00
6662;DHT22;3367;48.714;8.994;2023-09-07T09:48:59;22.60;1.00
6662;DHT22;3367;48.714;8.994;2023-09-07T09:51:27;22.80;1.00
6662;DHT22;3367;48.714;8.994;2023-09-07T09:53:56;23.00;1.00
6662;DHT22;3367;48.714;8.994;2023-09-07T09:56:23;23.20;1.00
6662;DHT22;3367;48.714;8.994;2023-09-07T09:58:51;23.30;1.00
6662;DHT22;3367;48.714;8.994;2023-09-07T10:01:19;23.30;1.00
6662;DHT22;3367;48.714;8.994;2023-09-07T10:03:48;23.40;1.00
6662;DHT22;3367;48.714;8.994;2023-09-07T10:06:23;23.50;1.00
6662;DHT22;3367;48.714;8.994;2023-09-07T10:08:57;23.40;1.00
6662;DHT22;3367;48.714;8.994;2023-09-07T10:11:27;23.30;1.00
6662;DHT22;3367;48.714;8.994;2023-09-07T10:13:57;23.20;1.00
6662;DHT22;3367;48.714;8.994;2023-09-07T10:16:24;23.40;1.00
6662;DHT22;3367;48.714;8.994;2023-09-07T10:18:52;23.60;1.00
6662;DHT22;3367;48.714;8.994;2023-09-07T10:21:23;23.80;1.00
6662;DHT22;3367;48.714;8.994;2023-09-07T10:23:51;23.90;1.00
6662;DHT22;3367;48.714;8.994;2023-09-07T10:26:20;23.80;1.00
6662;DHT22;3367;48.714;8.994;2023-09-07T10:28:58;23.70;1.00
6662;DHT22;3367;48.714;8.994;2023-09-07T10:31:26;23.70;1.00
6662;DHT22;3367;48.714;8.994;2023-09-07T10:33:53;23.70;1.00
6662;DHT22;3367;48.714;8.994;2023-09-07T10:36:21;23.60;1.00
6662;DHT22;3367;48.714;8.994;2023-09-07T10:38:48;23.60;1.00
6662;DHT22;3367;48.714;8.994;2023-09-07T10:41:20;23.90;1.00
6662;DHT22;3367;48.714;8.994;2023-09-07T10:43:48;23.70;1.00
6662;DHT22;3367;48.714;8.994;2023-09-07T10:46:15;24.00;1.00
6662;DHT22;3367;48.714;8.994;2023-09-07T10:48:44;24.00;1.00
6662;DHT22;3367;48.714;8.994;2023-09-07T10:51:11;24.20;1.00
6662;DHT22;3367;48.714;8.994;2023-09-07T10:53:38;24.20;1.00
6662;DHT22;3367;48.714;8.994;2023-09-07T10:56:05;24.20;1.00
6662;DHT22;3367;48.714;8.994;2023-09-07T10:58:35;24.00;1.00
6662;DHT22;3367;48.714;8.994;2023-09-07T11:01:04;24.00;1.00
6662;DHT22;3367;48.714;8.994;2023-09-07T11:03:32;24.20;1.00
6662;DHT22;3367;48.714;8.994;2023-09-07T11:06:01;24.40;1.00
6662;DHT22;3367;48.714;8.994;2023-09-07T11:08:30;24.70;1.00
6662;DHT22;3367;48.714;8.994;2023-09-07T11:10:57;24.80;1.00
6662;DHT22;3367;48.714;8.994;2023-09-07T11:13:24;24.80;1.00
6662;DHT22;3367;48.714;8.994;2023-09-07T11:15:55;24.70;1.00
6662;DHT22;3367;48.714;8.994;2023-09-07T11:18:23;24.80;1.00
6662;DHT22;3367;48.714;8.994;2023-09-07T11:20:51;25.00;1.00
6662;DHT22;3367;48.714;8.994;2023-09-07T11:23:20;25.10;1.00
6662;DHT22;3367;48.714;8.994;2023-09-07T11:25:47;25.10;1.00
6662;DHT22;3367;48.714;8.994;2023-09-07T11:28:16;25.30;1.00
6662;DHT22;3367;48.714;8.994;2023-09-07T11:30:50;25.40;1.00
6662;DHT22;3367;48.714;8.994;2023-09-07T11:33:19;25.30;1.00
6662;DHT22;3367;48.714;8.994;2023-09-07T11:35:46;25.40;1.00
6662;DHT22;3367;48.714;8.994;2023-09-07T11:38:14;25.20;1.00
6662;DHT22;3367;48.714;8.994;2023-09-07T11:40:42;25.20;1.00
6662;DHT22;3367;48.714;8.994;2023-09-07T11:43:10;25.20;1.00
6662;DHT22;3367;48.714;8.994;2023-09-07T11:45:38;25.30;1.00
6662;DHT22;3367;48.714;8.994;2023-09-07T11:48:05;25.60;1.00
6662;DHT22;3367;48.714;8.994;2023-09-07T11:50:35;25.50;1.00
6662;DHT22;3367;48.714;8.994;2023-09-07T11:53:03;25.50;1.00
6662;DHT22;3367;48.714;8.994;2023-09-07T11:55:30;25.60;1.00
6662;DHT22;3367;48.714;8.994;2023-09-07T11:57:56;25.50;1.00
6662;DHT22;3367;48.714;8.994;2023-09-07T12:00:23;25.30;1.00
6662;DHT22;3367;48.714;8.994;2023-09-07T12:02:51;25.50;1.00
6662;DHT22;3367;48.714;8.994;2023-09-07T12:05:17;25.60;1.00
6662;DHT22;3367;48.714;8.994;2023-09-07T12:07:46;25.80;1.00
6662;DHT22;3367;48.714;8.994;2023-09-07T12:10:13;25.60;1.00
6662;DHT22;3367;48.714;8.994;2023-09-07T12:12:40;25.80;1.00
6662;DHT22;3367;48.714;8.994;2023-09-07T12:15:08;25.60;1.00
6662;DHT22;3367;48.714;8.994;2023-09-07T12:17:36;25.70;1.00
6662;DHT22;3367;48.714;8.994;2023-09-07T12:20:04;25.90;1.00
6662;DHT22;3367;48.714;8.994;2023-09-07T12:22:35;26.10;1.00
6662;DHT22;3367;48.714;8.994;2023-09-07T12:25:05;26.10;1.00
6662;DHT22;3367;48.714;8.994;2023-09-07T12:27:33;26.00;1.00
6662;DHT22;3367;48.714;8.994;2023-09-07T12:30:00;26.10;1.00
6662;DHT22;3367;48.714;8.994;2023-09-07T12:32:27;26.10;1.00
6662;DHT22;3367;48.714;8.994;2023-09-07T12:34:55;26.10;1.00
6662;DHT22;3367;48.714;8.994;2023-09-07T12:37:21;26.10;1.00
6662;DHT22;3367;48.714;8.994;2023-09-07T12:39:49;26.30;1.00
6662;DHT22;3367;48.714;8.994;2023-09-07T12:42:17;26.30;1.00
6662;DHT22;3367;48.714;8.994;2023-09-07T12:44:44;26.40;1.00
6662;DHT22;3367;48.714;8.994;2023-09-07T12:47:11;26.30;1.00
6662;DHT22;3367;48.714;8.994;2023-09-07T12:49:37;26.30;1.00
6662;DHT22;3367;48.714;8.994;2023-09-07T12:52:05;26.40;1.00
6662;DHT22;3367;48.714;8.994;2023-09-07T12:54:34;26.30;1.00
6662;DHT22;3367;48.714;8.994;2023-09-07T12:57:06;26.30;1.00
6662;DHT22;3367;48.714;8.994;2023-09-07T12:59:41;26.30;1.00
6662;DHT22;3367;48.714;8.994;2023-09-07T13:02:08;26.50;1.00
6662;DHT22;3367;48.714;8.994;2023-09-07T13:04:34;26.30;1.00
6662;DHT22;3367;48.714;8.994;2023-09-07T13:07:01;26.50;1.00
6662;DHT22;3367;48.714;8.994;2023-09-07T13:09:28;26.50;1.00
6662;DHT22;3367;48.714;8.994;2023-09-07T13:11:55;26.40;1.00
6662;DHT22;3367;48.714;8.994;2023-09-07T13:14:21;26.30;1.00
6662;DHT22;3367;48.714;8.994;2023-09-07T13:16:49;26.40;1.00
6662;DHT22;3367;48.714;8.994;2023-09-07T13:19:17;26.60;1.00
6662;DHT22;3367;48.714;8.994;2023-09-07T13:21:43;26.40;1.00
6662;DHT22;3367;48.714;8.994;2023-09-07T13:24:10;26.40;1.00
6662;DHT22;3367;48.714;8.994;2023-09-07T13:26:39;26.40;1.00
6662;DHT22;3367;48.714;8.994;2023-09-07T13:29:06;26.40;1.00
6662;DHT22;3367;48.714;8.994;2023-09-07T13:31:33;26.50;1.00
6662;DHT22;3367;48.714;8.994;2023-09-07T13:34:01;26.50;1.00
6662;DHT22;3367;48.714;8.994;2023-09-07T13:36:28;26.50;1.00
6662;DHT22;3367;48.714;8.994;2023-09-07T13:38:54;26.60;1.00
6662;DHT22;3367;48.714;8.994;2023-09-07T13:41:22;26.70;1.00
6662;DHT22;3367;48.714;8.994;2023-09-07T13:43:49;26.70;1.00
6662;DHT22;3367;48.714;8.994;2023-09-07T13:46:16;26.60;1.00
6662;DHT22;3367;48.714;8.994;2023-09-07T13:48:43;26.70;1.00
6662;DHT22;3367;48.714;8.994;2023-09-07T13:51:11;26.80;1.00
6662;DHT22;3367;48.714;8.994;2023-09-07T13:53:37;26.70;1.00
6662;DHT22;3367;48.714;8.994;2023-09-07T13:56:04;26.70;1.00
6662;DHT22;3367;48.714;8.994;2023-09-07T13:58:31;26.60;1.00
6662;DHT22;3367;48.714;8.994;2023-09-07T14:00:57;26.60;1.00
6662;DHT22;3367;48.714;8.994;2023-09-07T14:03:24;26.60;1.00
6662;DHT22;3367;48.714;8.994;2023-09-07T14:05:51;26.60;1.00
6662;DHT22;3367;48.714;8.994;2023-09-07T14:08:19;26.60;1.00
6662;DHT22;3367;48.714;8.994;2023-09-07T14:10:48;26.60;1.00
6662;DHT22;3367;48.714;8.994;2023-09-07T14:13:17;26.70;1.00
6662;DHT22;3367;48.714;8.994;2023-09-07T14:15:44;26.70;1.00
6662;DHT22;3367;48.714;8.994;2023-09-07T14:18:11;26.80;1.00
6662;DHT22;3367;48.714;8.994;2023-09-07T14:20:38;26.80;1.00
6662;DHT22;3367;48.714;8.994;2023-09-07T14:23:04;26.90;1.00
6662;DHT22;3367;48.714;8.994;2023-09-07T14:25:32;27.00;1.00
6662;DHT22;3367;48.714;8.994;2023-09-07T14:28:00;26.90;1.00
6662;DHT22;3367;48.714;8.994;2023-09-07T14:30:26;27.00;1.00
6662;DHT22;3367;48.714;8.994;2023-09-07T14:32:53;26.90;1.00
6662;DHT22;3367;48.714;8.994;2023-09-07T14:35:20;26.90;1.00
6662;DHT22;3367;48.714;8.994;2023-09-07T14:37:46;26.80;1.00
6662;DHT22;3367;48.714;8.994;2023-09-07T14:40:13;27.00;1.00
6662;DHT22;3367;48.714;8.994;2023-09-07T14:42:41;27.00;1.00
6662;DHT22;3367;48.714;8.994;2023-09-07T14:45:09;27.00;1.00
6662;DHT22;3367;48.714;8.994;2023-09-07T14:47:35;27.00;1.00
6662;DHT22;3367;48.714;8.994;2023-09-07T14:50:02;27.00;1.00
6662;DHT22;3367;48.714;8.994;2023-09-07T14:52:29;27.00;1.00
6662;DHT22;3367;48.714;8.994;2023-09-07T14:54:56;27.20;1.00
6662;DHT22;3367;48.714;8.994;2023-09-07T14:57:23;27.00;1.00
6662;DHT22;3367;48.714;8.994;2023-09-07T14:59:51;26.80;1.00
6662;DHT22;3367;48.714;8.994;2023-09-07T15:02:18;27.00;1.00
6662;DHT22;3367;48.714;8.994;2023-09-07T15:04:44;26.90;1.00
6662;DHT22;3367;48.714;8.994;2023-09-07T15:07:12;27.00;1.00
6662;DHT22;3367;48.714;8.994;2023-09-07T15:09:38;27.00;1.00
6662;DHT22;3367;48.714;8.994;2023-09-07T15:12:05;27.00;1.00
6662;DHT22;3367;48.714;8.994;2023-09-07T15:14:32;26.90;1.00
6662;DHT22;3367;48.714;8.994;2023-09-07T15:17:00;26.90;1.00
6662;DHT22;3367;48.714;8.994;2023-09-07T15:19:27;27.00;1.00
6662;DHT22;3367;48.714;8.994;2023-09-07T15:21:55;27.10;1.00
6662;DHT22;3367;48.714;8.994;2023-09-07T15:24:22;27.10;1.00
6662;DHT22;3367;48.714;8.994;2023-09-07T15:26:49;27.10;1.00
6662;DHT22;3367;48.714;8.994;2023-09-07T15:29:15;27.20;1.00
6662;DHT22;3367;48.714;8.994;2023-09-07T15:31:42;27.00;1.00
6662;DHT22;3367;48.714;8.994;2023-09-07T15:34:10;27.00;1.00
6662;DHT22;3367;48.714;8.994;2023-09-07T15:36:37;26.90;1.00
6662;DHT22;3367;48.714;8.994;2023-09-07T15:39:04;27.00;1.00
6662;DHT22;3367;48.714;8.994;2023-09-07T15:41:31;27.00;1.00
6662;DHT22;3367;48.714;8.994;2023-09-07T15:43:58;27.00;1.00
6662;DHT22;3367;48.714;8.994;2023-09-07T15:46:25;27.00;1.00
6662;DHT22;3367;48.714;8.994;2023-09-07T15:48:52;27.00;1.00
6662;DHT22;3367;48.714;8.994;2023-09-07T15:51:20;27.10;1.00
6662;DHT22;3367;48.714;8.994;2023-09-07T15:53:47;27.10;1.00
6662;DHT22;3367;48.714;8.994;2023-09-07T15:56:14;27.10;1.00
6662;DHT22;3367;48.714;8.994;2023-09-07T15:58:41;27.10;1.00
6662;DHT22;3367;48.714;8.994;2023-09-07T16:01:08;27.10;1.00
6662;DHT22;3367;48.714;8.994;2023-09-07T16:03:35;27.00;1.00
6662;DHT22;3367;48.714;8.994;2023-09-07T16:06:07;27.00;1.00
6662;DHT22;3367;48.714;8.994;2023-09-07T16:08:38;26.80;1.00
6662;DHT22;3367;48.714;8.994;2023-09-07T16:11:08;26.90;1.00
6662;DHT22;3367;48.714;8.994;2023-09-07T16:13:37;26.80;1.00
6662;DHT22;3367;48.714;8.994;2023-09-07T16:16:10;26.90;1.00
6662;DHT22;3367;48.714;8.994;2023-09-07T16:18:37;26.80;1.00
6662;DHT22;3367;48.714;8.994;2023-09-07T16:21:04;26.80;1.00
6662;DHT22;3367;48.714;8.994;2023-09-07T16:23:39;26.70;1.00